sensor_id;sensor_type;location;lat;lon;timestamp;P1;durP1;ratioP1;P2;durP2;ratioP2
54849;SDS011;47660;51.334;12.396;2022-12-18T00:02:21;13.15;;;8.27;;
54849;SDS011;47660;51.334;12.396;2022-12-18T00:04:47;14.05;;;8.00;;
54849;SDS011;47660;51.334;12.396;2022-12-18T00:07:17;14.25;;;6.97;;
54849;SDS011;47660;51.334;12.396;2022-12-18T00:09:43;12.05;;;7.30;;
54849;SDS011;47660;51.334;12.396;2022-12-18T00:12:08;16.17;;;8.65;;
54849;SDS011;47660;51.334;12.396;2022-12-18T00:14:33;9.02;;;7.13;;
54849;SDS011;47660;51.334;12.396;2022-12-18T00:16:59;10.43;;;7.28;;
54849;SDS011;47660;51.334;12.396;2022-12-18T00:19:25;14.40;;;9.00;;
54849;SDS011;47660;51.334;12.396;2022-12-18T00:21:51;13.43;;;5.88;;
54849;SDS011;47660;51.334;12.396;2022-12-18T00:24:19;10.45;;;6.85;;
54849;SDS011;47660;51.334;12.396;2022-12-18T00:26:44;15.05;;;7.05;;
54849;SDS011;47660;51.334;12.396;2022-12-18T00:29:11;9.38;;;6.70;;
54849;SDS011;47660;51.334;12.396;2022-12-18T00:31:41;23.95;;;8.43;;
54849;SDS011;47660;51.334;12.396;2022-12-18T00:34:09;18.95;;;7.35;;
54849;SDS011;47660;51.334;12.396;2022-12-18T00:36:37;12.35;;;7.65;;
54849;SDS011;47660;51.334;12.396;2022-12-18T00:39:04;13.57;;;7.97;;
54849;SDS011;47660;51.334;12.396;2022-12-18T00:41:30;14.65;;;8.93;;
54849;SDS011;47660;51.334;12.396;2022-12-18T00:44:15;11.35;;;6.80;;
54849;SDS011;47660;51.334;12.396;2022-12-18T00:46:45;13.73;;;6.47;;
54849;SDS011;47660;51.334;12.396;2022-12-18T00:49:11;11.38;;;7.65;;
54849;SDS011;47660;51.334;12.396;2022-12-18T00:51:37;11.38;;;6.18;;
54849;SDS011;47660;51.334;12.396;2022-12-18T00:54:03;14.57;;;8.35;;
54849;SDS011;47660;51.334;12.396;2022-12-18T00:56:29;9.82;;;7.95;;
54849;SDS011;47660;51.334;12.396;2022-12-18T00:59:01;11.10;;;9.57;;
54849;SDS011;47660;51.334;12.396;2022-12-18T01:01:27;12.68;;;8.02;;
54849;SDS011;47660;51.334;12.396;2022-12-18T01:03:55;20.58;;;7.97;;
54849;SDS011;47660;51.334;12.396;2022-12-18T01:06:29;12.43;;;9.52;;
54849;SDS011;47660;51.334;12.396;2022-12-18T01:08:55;20.52;;;8.70;;
54849;SDS011;47660;51.334;12.396;2022-12-18T01:11:21;8.68;;;6.93;;
54849;SDS011;47660;51.334;12.396;2022-12-18T01:13:50;18.33;;;8.85;;
54849;SDS011;47660;51.334;12.396;2022-12-18T01:16:17;10.85;;;7.28;;
54849;SDS011;47660;51.334;12.396;2022-12-18T01:18:42;11.85;;;6.72;;
54849;SDS011;47660;51.334;12.396;2022-12-18T01:21:09;8.90;;;6.50;;
54849;SDS011;47660;51.334;12.396;2022-12-18T01:23:35;10.57;;;8.43;;
54849;SDS011;47660;51.334;12.396;2022-12-18T01:26:05;16.80;;;7.53;;
54849;SDS011;47660;51.334;12.396;2022-12-18T01:28:32;13.30;;;7.13;;
54849;SDS011;47660;51.334;12.396;2022-12-18T01:30:57;14.27;;;6.97;;
54849;SDS011;47660;51.334;12.396;2022-12-18T01:33:33;14.82;;;7.43;;
54849;SDS011;47660;51.334;12.396;2022-12-18T01:35:59;10.10;;;6.68;;
54849;SDS011;47660;51.334;12.396;2022-12-18T01:38:24;12.85;;;6.93;;
54849;SDS011;47660;51.334;12.396;2022-12-18T01:40:57;10.20;;;6.63;;
54849;SDS011;47660;51.334;12.396;2022-12-18T01:46:11;11.85;;;6.70;;
54849;SDS011;47660;51.334;12.396;2022-12-18T01:48:37;15.20;;;7.85;;
54849;SDS011;47660;51.334;12.396;2022-12-18T01:51:04;10.75;;;7.30;;
54849;SDS011;47660;51.334;12.396;2022-12-18T01:53:31;8.25;;;5.63;;
54849;SDS011;47660;51.334;12.396;2022-12-18T01:55:57;5.38;;;3.90;;
54849;SDS011;47660;51.334;12.396;2022-12-18T01:58:30;6.53;;;5.40;;
54849;SDS011;47660;51.334;12.396;2022-12-18T02:01:03;11.68;;;6.80;;
54849;SDS011;47660;51.334;12.396;2022-12-18T02:03:31;6.30;;;5.70;;
54849;SDS011;47660;51.334;12.396;2022-12-18T02:08:54;9.55;;;5.60;;
54849;SDS011;47660;51.334;12.396;2022-12-18T02:14:46;5.65;;;4.53;;
54849;SDS011;47660;51.334;12.396;2022-12-18T02:17:22;8.20;;;4.85;;
54849;SDS011;47660;51.334;12.396;2022-12-18T02:25:30;5.78;;;3.83;;
54849;SDS011;47660;51.334;12.396;2022-12-18T02:28:08;9.00;;;5.25;;
54849;SDS011;47660;51.334;12.396;2022-12-18T02:30:40;14.23;;;7.10;;
54849;SDS011;47660;51.334;12.396;2022-12-18T02:33:17;5.30;;;3.10;;
54849;SDS011;47660;51.334;12.396;2022-12-18T02:35:45;11.55;;;5.45;;
54849;SDS011;47660;51.334;12.396;2022-12-18T02:38:13;10.38;;;6.00;;
54849;SDS011;47660;51.334;12.396;2022-12-18T02:40:41;8.82;;;3.00;;
54849;SDS011;47660;51.334;12.396;2022-12-18T02:43:12;9.48;;;5.80;;
54849;SDS011;47660;51.334;12.396;2022-12-18T02:45:46;5.38;;;3.90;;
54849;SDS011;47660;51.334;12.396;2022-12-18T02:48:22;24.88;;;6.43;;
54849;SDS011;47660;51.334;12.396;2022-12-18T02:51:03;4.28;;;3.72;;
54849;SDS011;47660;51.334;12.396;2022-12-18T02:53:53;5.85;;;3.38;;
54849;SDS011;47660;51.334;12.396;2022-12-18T02:56:30;9.05;;;5.72;;
54849;SDS011;47660;51.334;12.396;2022-12-18T02:59:15;4.80;;;3.50;;
54849;SDS011;47660;51.334;12.396;2022-12-18T03:04:23;7.40;;;5.95;;
54849;SDS011;47660;51.334;12.396;2022-12-18T03:06:50;6.25;;;4.47;;
54849;SDS011;47660;51.334;12.396;2022-12-18T03:09:22;8.30;;;4.75;;
54849;SDS011;47660;51.334;12.396;2022-12-18T03:11:58;7.47;;;4.50;;
54849;SDS011;47660;51.334;12.396;2022-12-18T03:14:48;7.57;;;5.10;;
54849;SDS011;47660;51.334;12.396;2022-12-18T03:17:22;11.82;;;8.00;;
54849;SDS011;47660;51.334;12.396;2022-12-18T03:19:51;4.22;;;3.45;;
54849;SDS011;47660;51.334;12.396;2022-12-18T03:22:23;3.08;;;2.70;;
54849;SDS011;47660;51.334;12.396;2022-12-18T03:24:56;7.03;;;3.63;;
54849;SDS011;47660;51.334;12.396;2022-12-18T03:27:24;8.95;;;6.63;;
54849;SDS011;47660;51.334;12.396;2022-12-18T03:30:00;9.40;;;4.68;;
54849;SDS011;47660;51.334;12.396;2022-12-18T03:32:33;6.10;;;3.65;;
54849;SDS011;47660;51.334;12.396;2022-12-18T03:35:13;16.25;;;5.30;;
54849;SDS011;47660;51.334;12.396;2022-12-18T03:37:48;5.30;;;3.17;;
54849;SDS011;47660;51.334;12.396;2022-12-18T03:40:14;4.50;;;4.07;;
54849;SDS011;47660;51.334;12.396;2022-12-18T03:45:32;5.53;;;3.85;;
54849;SDS011;47660;51.334;12.396;2022-12-18T03:56:01;5.93;;;3.90;;
54849;SDS011;47660;51.334;12.396;2022-12-18T03:58:28;5.90;;;4.53;;
54849;SDS011;47660;51.334;12.396;2022-12-18T04:00:58;6.53;;;4.10;;
54849;SDS011;47660;51.334;12.396;2022-12-18T04:03:27;7.13;;;5.07;;
54849;SDS011;47660;51.334;12.396;2022-12-18T04:05:54;3.25;;;2.95;;
54849;SDS011;47660;51.334;12.396;2022-12-18T04:08:25;8.15;;;3.90;;
54849;SDS011;47660;51.334;12.396;2022-12-18T04:10:51;6.95;;;5.30;;
54849;SDS011;47660;51.334;12.396;2022-12-18T04:13:29;4.63;;;4.07;;
54849;SDS011;47660;51.334;12.396;2022-12-18T04:15:59;5.25;;;4.45;;
54849;SDS011;47660;51.334;12.396;2022-12-18T04:18:24;7.10;;;4.00;;
54849;SDS011;47660;51.334;12.396;2022-12-18T04:20:49;4.82;;;4.32;;
54849;SDS011;47660;51.334;12.396;2022-12-18T04:23:15;9.68;;;4.63;;
54849;SDS011;47660;51.334;12.396;2022-12-18T04:25:43;9.18;;;6.28;;
54849;SDS011;47660;51.334;12.396;2022-12-18T04:28:08;5.30;;;2.47;;
54849;SDS011;47660;51.334;12.396;2022-12-18T04:30:36;12.65;;;6.97;;
54849;SDS011;47660;51.334;12.396;2022-12-18T04:33:02;20.08;;;6.40;;
54849;SDS011;47660;51.334;12.396;2022-12-18T04:35:27;5.35;;;4.38;;
54849;SDS011;47660;51.334;12.396;2022-12-18T04:37:53;4.32;;;3.60;;
54849;SDS011;47660;51.334;12.396;2022-12-18T04:40:18;14.25;;;6.78;;
54849;SDS011;47660;51.334;12.396;2022-12-18T04:42:43;5.93;;;4.30;;
54849;SDS011;47660;51.334;12.396;2022-12-18T04:45:11;10.20;;;5.45;;
54849;SDS011;47660;51.334;12.396;2022-12-18T04:47:36;7.80;;;6.13;;
54849;SDS011;47660;51.334;12.396;2022-12-18T04:50:02;8.35;;;4.13;;
54849;SDS011;47660;51.334;12.396;2022-12-18T04:52:28;6.03;;;4.45;;
54849;SDS011;47660;51.334;12.396;2022-12-18T04:54:53;6.30;;;3.80;;
54849;SDS011;47660;51.334;12.396;2022-12-18T04:57:19;6.60;;;3.38;;
54849;SDS011;47660;51.334;12.396;2022-12-18T04:59:47;10.68;;;3.30;;
54849;SDS011;47660;51.334;12.396;2022-12-18T05:02:14;8.45;;;3.92;;
54849;SDS011;47660;51.334;12.396;2022-12-18T05:04:40;7.30;;;3.00;;
54849;SDS011;47660;51.334;12.396;2022-12-18T05:07:05;5.22;;;3.78;;
54849;SDS011;47660;51.334;12.396;2022-12-18T05:09:33;5.85;;;3.00;;
54849;SDS011;47660;51.334;12.396;2022-12-18T05:11:58;6.40;;;4.78;;
54849;SDS011;47660;51.334;12.396;2022-12-18T05:14:24;8.65;;;4.07;;
54849;SDS011;47660;51.334;12.396;2022-12-18T05:16:52;6.97;;;4.07;;
54849;SDS011;47660;51.334;12.396;2022-12-18T05:19:17;7.22;;;2.95;;
54849;SDS011;47660;51.334;12.396;2022-12-18T05:21:43;6.72;;;3.60;;
54849;SDS011;47660;51.334;12.396;2022-12-18T05:24:08;4.20;;;3.47;;
54849;SDS011;47660;51.334;12.396;2022-12-18T05:26:33;5.03;;;3.67;;
54849;SDS011;47660;51.334;12.396;2022-12-18T05:29:01;9.73;;;3.38;;
54849;SDS011;47660;51.334;12.396;2022-12-18T05:31:27;8.32;;;3.90;;
54849;SDS011;47660;51.334;12.396;2022-12-18T05:33:52;9.30;;;3.45;;
54849;SDS011;47660;51.334;12.396;2022-12-18T05:36:18;3.97;;;2.65;;
54849;SDS011;47660;51.334;12.396;2022-12-18T05:38:43;2.40;;;2.22;;
54849;SDS011;47660;51.334;12.396;2022-12-18T05:41:09;6.93;;;3.30;;
54849;SDS011;47660;51.334;12.396;2022-12-18T05:43:35;4.43;;;3.22;;
54849;SDS011;47660;51.334;12.396;2022-12-18T05:46:05;6.00;;;3.60;;
54849;SDS011;47660;51.334;12.396;2022-12-18T05:48:34;3.17;;;2.75;;
54849;SDS011;47660;51.334;12.396;2022-12-18T05:51:05;4.20;;;2.47;;
54849;SDS011;47660;51.334;12.396;2022-12-18T05:53:32;3.08;;;2.70;;
54849;SDS011;47660;51.334;12.396;2022-12-18T05:56:05;3.25;;;2.33;;
54849;SDS011;47660;51.334;12.396;2022-12-18T05:58:33;2.60;;;2.38;;
54849;SDS011;47660;51.334;12.396;2022-12-18T06:01:05;8.93;;;3.38;;
54849;SDS011;47660;51.334;12.396;2022-12-18T06:03:36;5.38;;;2.67;;
54849;SDS011;47660;51.334;12.396;2022-12-18T06:06:01;7.10;;;2.33;;
54849;SDS011;47660;51.334;12.396;2022-12-18T06:08:27;1.88;;;1.55;;
54849;SDS011;47660;51.334;12.396;2022-12-18T06:10:53;4.10;;;3.72;;
54849;SDS011;47660;51.334;12.396;2022-12-18T06:13:19;3.63;;;3.33;;
54849;SDS011;47660;51.334;12.396;2022-12-18T06:15:47;6.72;;;3.42;;
54849;SDS011;47660;51.334;12.396;2022-12-18T06:18:12;8.65;;;4.07;;
54849;SDS011;47660;51.334;12.396;2022-12-18T06:20:40;5.35;;;1.90;;
54849;SDS011;47660;51.334;12.396;2022-12-18T06:23:09;13.40;;;4.97;;
54849;SDS011;47660;51.334;12.396;2022-12-18T06:25:36;3.40;;;2.13;;
54849;SDS011;47660;51.334;12.396;2022-12-18T06:28:02;6.85;;;3.97;;
54849;SDS011;47660;51.334;12.396;2022-12-18T06:30:28;9.40;;;3.50;;
54849;SDS011;47660;51.334;12.396;2022-12-18T06:32:53;3.58;;;2.63;;
54849;SDS011;47660;51.334;12.396;2022-12-18T06:35:19;6.53;;;2.72;;
54849;SDS011;47660;51.334;12.396;2022-12-18T06:37:46;3.72;;;3.08;;
54849;SDS011;47660;51.334;12.396;2022-12-18T06:40:12;4.05;;;3.28;;
54849;SDS011;47660;51.334;12.396;2022-12-18T06:42:39;6.13;;;2.53;;
54849;SDS011;47660;51.334;12.396;2022-12-18T06:45:05;3.13;;;2.72;;
54849;SDS011;47660;51.334;12.396;2022-12-18T06:47:31;5.72;;;3.47;;
54849;SDS011;47660;51.334;12.396;2022-12-18T06:49:56;7.13;;;3.33;;
54849;SDS011;47660;51.334;12.396;2022-12-18T06:52:21;4.60;;;3.67;;
54849;SDS011;47660;51.334;12.396;2022-12-18T06:54:47;2.13;;;2.03;;
54849;SDS011;47660;51.334;12.396;2022-12-18T06:57:12;2.15;;;1.95;;
54849;SDS011;47660;51.334;12.396;2022-12-18T06:59:38;3.92;;;2.35;;
54849;SDS011;47660;51.334;12.396;2022-12-18T07:02:03;4.90;;;2.05;;
54849;SDS011;47660;51.334;12.396;2022-12-18T07:04:29;2.28;;;2.08;;
54849;SDS011;47660;51.334;12.396;2022-12-18T07:06:55;2.67;;;2.47;;
54849;SDS011;47660;51.334;12.396;2022-12-18T07:09:20;4.47;;;2.88;;
54849;SDS011;47660;51.334;12.396;2022-12-18T07:11:46;1.70;;;1.60;;
54849;SDS011;47660;51.334;12.396;2022-12-18T07:14:14;5.35;;;3.85;;
54849;SDS011;47660;51.334;12.396;2022-12-18T07:16:39;3.10;;;2.83;;
54849;SDS011;47660;51.334;12.396;2022-12-18T07:19:05;6.03;;;2.97;;
54849;SDS011;47660;51.334;12.396;2022-12-18T07:21:33;5.68;;;4.05;;
54849;SDS011;47660;51.334;12.396;2022-12-18T07:23:58;3.58;;;3.10;;
54849;SDS011;47660;51.334;12.396;2022-12-18T07:26:29;4.38;;;2.40;;
54849;SDS011;47660;51.334;12.396;2022-12-18T07:28:57;3.67;;;2.78;;
54849;SDS011;47660;51.334;12.396;2022-12-18T07:31:25;5.72;;;4.55;;
54849;SDS011;47660;51.334;12.396;2022-12-18T07:33:51;5.50;;;4.47;;
54849;SDS011;47660;51.334;12.396;2022-12-18T07:36:19;5.28;;;2.80;;
54849;SDS011;47660;51.334;12.396;2022-12-18T07:38:46;2.60;;;2.40;;
54849;SDS011;47660;51.334;12.396;2022-12-18T07:41:13;6.25;;;4.47;;
54849;SDS011;47660;51.334;12.396;2022-12-18T07:43:41;4.78;;;2.75;;
54849;SDS011;47660;51.334;12.396;2022-12-18T07:46:07;12.60;;;5.07;;
54849;SDS011;47660;51.334;12.396;2022-12-18T07:48:33;6.85;;;3.63;;
54849;SDS011;47660;51.334;12.396;2022-12-18T07:50:59;2.75;;;2.50;;
54849;SDS011;47660;51.334;12.396;2022-12-18T07:53:29;7.80;;;3.42;;
54849;SDS011;47660;51.334;12.396;2022-12-18T07:55:56;8.10;;;4.63;;
54849;SDS011;47660;51.334;12.396;2022-12-18T07:58:22;2.33;;;2.13;;
54849;SDS011;47660;51.334;12.396;2022-12-18T08:00:52;3.75;;;2.72;;
54849;SDS011;47660;51.334;12.396;2022-12-18T08:03:18;3.97;;;3.42;;
54849;SDS011;47660;51.334;12.396;2022-12-18T08:05:44;2.58;;;2.35;;
54849;SDS011;47660;51.334;12.396;2022-12-18T08:08:09;4.13;;;3.33;;
54849;SDS011;47660;51.334;12.396;2022-12-18T08:10:35;4.60;;;2.60;;
54849;SDS011;47660;51.334;12.396;2022-12-18T08:13:01;2.65;;;2.45;;
54849;SDS011;47660;51.334;12.396;2022-12-18T08:15:29;6.57;;;3.38;;
54849;SDS011;47660;51.334;12.396;2022-12-18T08:17:57;7.68;;;4.68;;
54849;SDS011;47660;51.334;12.396;2022-12-18T08:20:22;5.20;;;3.97;;
54849;SDS011;47660;51.334;12.396;2022-12-18T08:22:50;5.20;;;3.47;;
54849;SDS011;47660;51.334;12.396;2022-12-18T08:25:15;8.25;;;5.35;;
54849;SDS011;47660;51.334;12.396;2022-12-18T08:27:41;5.13;;;3.50;;
54849;SDS011;47660;51.334;12.396;2022-12-18T08:30:06;4.75;;;3.08;;
54849;SDS011;47660;51.334;12.396;2022-12-18T08:32:32;6.30;;;4.05;;
54849;SDS011;47660;51.334;12.396;2022-12-18T08:34:58;3.83;;;3.53;;
54849;SDS011;47660;51.334;12.396;2022-12-18T08:37:24;4.57;;;3.17;;
54849;SDS011;47660;51.334;12.396;2022-12-18T08:39:54;5.85;;;4.30;;
54849;SDS011;47660;51.334;12.396;2022-12-18T08:42:22;5.13;;;2.90;;
54849;SDS011;47660;51.334;12.396;2022-12-18T08:45:06;3.38;;;3.08;;
54849;SDS011;47660;51.334;12.396;2022-12-18T08:47:32;9.70;;;3.30;;
54849;SDS011;47660;51.334;12.396;2022-12-18T08:50:00;7.45;;;3.42;;
54849;SDS011;47660;51.334;12.396;2022-12-18T08:52:25;9.15;;;3.50;;
54849;SDS011;47660;51.334;12.396;2022-12-18T08:54:51;4.00;;;2.80;;
54849;SDS011;47660;51.334;12.396;2022-12-18T08:57:19;3.65;;;3.33;;
54849;SDS011;47660;51.334;12.396;2022-12-18T08:59:47;4.85;;;4.13;;
54849;SDS011;47660;51.334;12.396;2022-12-18T09:02:14;6.45;;;4.10;;
54849;SDS011;47660;51.334;12.396;2022-12-18T09:04:40;8.30;;;2.70;;
54849;SDS011;47660;51.334;12.396;2022-12-18T09:07:06;5.53;;;3.63;;
54849;SDS011;47660;51.334;12.396;2022-12-18T09:09:42;3.35;;;2.88;;
54849;SDS011;47660;51.334;12.396;2022-12-18T09:12:10;3.60;;;2.35;;
54849;SDS011;47660;51.334;12.396;2022-12-18T09:14:36;4.97;;;4.15;;
54849;SDS011;47660;51.334;12.396;2022-12-18T09:17:01;9.60;;;5.13;;
54849;SDS011;47660;51.334;12.396;2022-12-18T09:19:27;6.60;;;4.55;;
54849;SDS011;47660;51.334;12.396;2022-12-18T09:21:54;6.78;;;3.70;;
54849;SDS011;47660;51.334;12.396;2022-12-18T09:24:22;6.55;;;3.55;;
54849;SDS011;47660;51.334;12.396;2022-12-18T09:26:48;6.82;;;4.43;;
54849;SDS011;47660;51.334;12.396;2022-12-18T09:29:14;3.30;;;2.40;;
54849;SDS011;47660;51.334;12.396;2022-12-18T09:31:44;3.28;;;2.85;;
54849;SDS011;47660;51.334;12.396;2022-12-18T09:34:10;7.32;;;4.68;;
54849;SDS011;47660;51.334;12.396;2022-12-18T09:36:37;8.40;;;4.78;;
54849;SDS011;47660;51.334;12.396;2022-12-18T09:39:03;6.40;;;3.70;;
54849;SDS011;47660;51.334;12.396;2022-12-18T09:44:34;7.75;;;4.43;;
54849;SDS011;47660;51.334;12.396;2022-12-18T09:49:55;10.10;;;5.60;;
54849;SDS011;47660;51.334;12.396;2022-12-18T09:54:58;4.13;;;3.72;;
54849;SDS011;47660;51.334;12.396;2022-12-18T09:57:25;5.65;;;3.47;;
54849;SDS011;47660;51.334;12.396;2022-12-18T10:00:15;4.65;;;3.88;;
54849;SDS011;47660;51.334;12.396;2022-12-18T10:02:43;6.68;;;3.92;;
54849;SDS011;47660;51.334;12.396;2022-12-18T10:05:16;5.70;;;5.10;;
54849;SDS011;47660;51.334;12.396;2022-12-18T10:16:17;2.67;;;2.47;;
54849;SDS011;47660;51.334;12.396;2022-12-18T10:27:09;8.27;;;3.60;;
54849;SDS011;47660;51.334;12.396;2022-12-18T10:29:42;6.43;;;4.03;;
54849;SDS011;47660;51.334;12.396;2022-12-18T10:32:22;7.25;;;4.07;;
54849;SDS011;47660;51.334;12.396;2022-12-18T10:34:54;4.28;;;3.45;;
54849;SDS011;47660;51.334;12.396;2022-12-18T10:37:22;7.75;;;3.72;;
54849;SDS011;47660;51.334;12.396;2022-12-18T10:40:12;3.15;;;2.65;;
54849;SDS011;47660;51.334;12.396;2022-12-18T10:45:10;4.20;;;3.83;;
54849;SDS011;47660;51.334;12.396;2022-12-18T10:47:47;5.07;;;2.17;;
54849;SDS011;47660;51.334;12.396;2022-12-18T10:52:55;4.85;;;3.20;;
54849;SDS011;47660;51.334;12.396;2022-12-18T10:55:24;5.68;;;2.78;;
54849;SDS011;47660;51.334;12.396;2022-12-18T10:58:43;4.75;;;3.80;;
54849;SDS011;47660;51.334;12.396;2022-12-18T11:01:12;9.30;;;3.92;;
54849;SDS011;47660;51.334;12.396;2022-12-18T11:06:19;11.38;;;6.57;;
54849;SDS011;47660;51.334;12.396;2022-12-18T11:08:59;12.43;;;4.43;;
54849;SDS011;47660;51.334;12.396;2022-12-18T11:11:50;5.20;;;3.45;;
54849;SDS011;47660;51.334;12.396;2022-12-18T11:14:25;3.33;;;3.00;;
54849;SDS011;47660;51.334;12.396;2022-12-18T11:20:19;3.90;;;3.33;;
54849;SDS011;47660;51.334;12.396;2022-12-18T11:22:59;6.95;;;3.70;;
54849;SDS011;47660;51.334;12.396;2022-12-18T11:25:30;4.88;;;3.85;;
54849;SDS011;47660;51.334;12.396;2022-12-18T11:28:02;4.53;;;2.92;;
54849;SDS011;47660;51.334;12.396;2022-12-18T11:33:05;5.25;;;2.83;;
54849;SDS011;47660;51.334;12.396;2022-12-18T11:37:58;10.15;;;4.43;;
54849;SDS011;47660;51.334;12.396;2022-12-18T11:40:36;5.43;;;2.90;;
54849;SDS011;47660;51.334;12.396;2022-12-18T11:45:54;3.83;;;2.55;;
54849;SDS011;47660;51.334;12.396;2022-12-18T11:48:38;2.85;;;2.65;;
54849;SDS011;47660;51.334;12.396;2022-12-18T11:51:16;3.08;;;2.45;;
54849;SDS011;47660;51.334;12.396;2022-12-18T11:54:14;2.13;;;1.85;;
54849;SDS011;47660;51.334;12.396;2022-12-18T11:56:54;3.72;;;3.10;;
54849;SDS011;47660;51.334;12.396;2022-12-18T12:10:14;3.67;;;2.50;;
54849;SDS011;47660;51.334;12.396;2022-12-18T12:15:39;6.80;;;3.55;;
54849;SDS011;47660;51.334;12.396;2022-12-18T12:18:27;3.80;;;3.35;;
54849;SDS011;47660;51.334;12.396;2022-12-18T12:21:23;7.10;;;5.88;;
54849;SDS011;47660;51.334;12.396;2022-12-18T12:29:39;6.45;;;4.00;;
54849;SDS011;47660;51.334;12.396;2022-12-18T12:32:20;5.40;;;3.45;;
54849;SDS011;47660;51.334;12.396;2022-12-18T12:40:31;3.30;;;2.40;;
54849;SDS011;47660;51.334;12.396;2022-12-18T12:43:04;6.38;;;3.33;;
54849;SDS011;47660;51.334;12.396;2022-12-18T12:45:52;4.40;;;3.72;;
54849;SDS011;47660;51.334;12.396;2022-12-18T12:50:49;4.50;;;3.25;;
54849;SDS011;47660;51.334;12.396;2022-12-18T12:53:23;3.08;;;2.88;;
54849;SDS011;47660;51.334;12.396;2022-12-18T12:55:58;4.72;;;3.20;;
54849;SDS011;47660;51.334;12.396;2022-12-18T12:58:28;3.75;;;3.13;;
54849;SDS011;47660;51.334;12.396;2022-12-18T13:01:04;3.00;;;1.98;;
54849;SDS011;47660;51.334;12.396;2022-12-18T13:04:02;7.22;;;3.97;;
54849;SDS011;47660;51.334;12.396;2022-12-18T13:09:15;3.55;;;2.63;;
54849;SDS011;47660;51.334;12.396;2022-12-18T13:11:45;3.17;;;2.00;;
54849;SDS011;47660;51.334;12.396;2022-12-18T13:14:36;5.72;;;3.28;;
54849;SDS011;47660;51.334;12.396;2022-12-18T13:17:16;4.47;;;3.30;;
54849;SDS011;47660;51.334;12.396;2022-12-18T13:19:48;8.20;;;4.07;;
54849;SDS011;47660;51.334;12.396;2022-12-18T13:22:31;4.88;;;3.38;;
54849;SDS011;47660;51.334;12.396;2022-12-18T13:25:02;3.83;;;3.17;;
54849;SDS011;47660;51.334;12.396;2022-12-18T13:28:07;5.65;;;3.22;;
54849;SDS011;47660;51.334;12.396;2022-12-18T13:43:35;5.47;;;3.80;;
54849;SDS011;47660;51.334;12.396;2022-12-18T13:46:21;7.25;;;3.03;;
54849;SDS011;47660;51.334;12.396;2022-12-18T13:48:50;7.15;;;3.97;;
54849;SDS011;47660;51.334;12.396;2022-12-18T13:51:17;20.35;;;5.53;;
54849;SDS011;47660;51.334;12.396;2022-12-18T13:53:49;5.07;;;3.60;;
54849;SDS011;47660;51.334;12.396;2022-12-18T13:56:18;6.13;;;3.67;;
54849;SDS011;47660;51.334;12.396;2022-12-18T14:01:28;6.32;;;3.38;;
54849;SDS011;47660;51.334;12.396;2022-12-18T14:06:51;5.78;;;4.22;;
54849;SDS011;47660;51.334;12.396;2022-12-18T14:09:23;6.43;;;3.38;;
54849;SDS011;47660;51.334;12.396;2022-12-18T14:11:51;9.32;;;4.25;;
54849;SDS011;47660;51.334;12.396;2022-12-18T14:14:17;16.23;;;4.03;;
54849;SDS011;47660;51.334;12.396;2022-12-18T14:16:46;5.75;;;3.60;;
54849;SDS011;47660;51.334;12.396;2022-12-18T14:19:15;8.93;;;4.07;;
54849;SDS011;47660;51.334;12.396;2022-12-18T14:21:49;4.93;;;3.42;;
54849;SDS011;47660;51.334;12.396;2022-12-18T14:24:17;3.78;;;2.95;;
54849;SDS011;47660;51.334;12.396;2022-12-18T14:26:44;5.88;;;3.88;;
54849;SDS011;47660;51.334;12.396;2022-12-18T14:32:05;3.10;;;2.65;;
54849;SDS011;47660;51.334;12.396;2022-12-18T14:34:32;7.07;;;4.25;;
54849;SDS011;47660;51.334;12.396;2022-12-18T14:36:57;17.83;;;4.57;;
54849;SDS011;47660;51.334;12.396;2022-12-18T14:41:50;12.55;;;6.15;;
54849;SDS011;47660;51.334;12.396;2022-12-18T14:44:18;6.55;;;4.03;;
54849;SDS011;47660;51.334;12.396;2022-12-18T14:46:46;6.50;;;3.95;;
54849;SDS011;47660;51.334;12.396;2022-12-18T14:49:23;6.38;;;3.95;;
54849;SDS011;47660;51.334;12.396;2022-12-18T14:54:20;5.95;;;4.35;;
54849;SDS011;47660;51.334;12.396;2022-12-18T14:59:30;6.80;;;4.07;;
54849;SDS011;47660;51.334;12.396;2022-12-18T15:01:57;14.52;;;6.43;;
54849;SDS011;47660;51.334;12.396;2022-12-18T15:04:44;11.35;;;5.88;;
54849;SDS011;47660;51.334;12.396;2022-12-18T15:12:48;11.73;;;5.00;;
54849;SDS011;47660;51.334;12.396;2022-12-18T15:18:05;10.45;;;4.75;;
54849;SDS011;47660;51.334;12.396;2022-12-18T15:26:16;8.20;;;4.38;;
54849;SDS011;47660;51.334;12.396;2022-12-18T15:36:22;13.15;;;4.95;;
54849;SDS011;47660;51.334;12.396;2022-12-18T15:38:49;11.10;;;4.95;;
54849;SDS011;47660;51.334;12.396;2022-12-18T15:41:17;10.63;;;4.55;;
54849;SDS011;47660;51.334;12.396;2022-12-18T15:43:44;4.32;;;3.78;;
54849;SDS011;47660;51.334;12.396;2022-12-18T15:46:12;5.03;;;4.20;;
54849;SDS011;47660;51.334;12.396;2022-12-18T15:48:43;9.70;;;5.07;;
54849;SDS011;47660;51.334;12.396;2022-12-18T15:51:11;8.63;;;4.50;;
54849;SDS011;47660;51.334;12.396;2022-12-18T15:53:41;8.43;;;4.63;;
54849;SDS011;47660;51.334;12.396;2022-12-18T15:56:09;11.02;;;6.15;;
54849;SDS011;47660;51.334;12.396;2022-12-18T15:58:54;9.98;;;5.25;;
54849;SDS011;47660;51.334;12.396;2022-12-18T16:01:20;7.90;;;5.97;;
54849;SDS011;47660;51.334;12.396;2022-12-18T16:03:57;12.65;;;6.50;;
54849;SDS011;47660;51.334;12.396;2022-12-18T16:06:22;14.65;;;6.90;;
54849;SDS011;47660;51.334;12.396;2022-12-18T16:08:50;21.08;;;6.90;;
54849;SDS011;47660;51.334;12.396;2022-12-18T16:11:23;8.75;;;5.32;;
54849;SDS011;47660;51.334;12.396;2022-12-18T16:14:12;16.60;;;7.32;;
54849;SDS011;47660;51.334;12.396;2022-12-18T16:16:45;8.52;;;5.93;;
54849;SDS011;47660;51.334;12.396;2022-12-18T16:19:15;13.80;;;8.50;;
54849;SDS011;47660;51.334;12.396;2022-12-18T16:21:41;20.55;;;9.07;;
54849;SDS011;47660;51.334;12.396;2022-12-18T16:24:16;8.38;;;6.22;;
54849;SDS011;47660;51.334;12.396;2022-12-18T16:26:44;17.20;;;6.88;;
54849;SDS011;47660;51.334;12.396;2022-12-18T16:29:09;9.85;;;7.10;;
54849;SDS011;47660;51.334;12.396;2022-12-18T16:31:38;11.50;;;5.57;;
54849;SDS011;47660;51.334;12.396;2022-12-18T16:34:20;8.63;;;5.00;;
54849;SDS011;47660;51.334;12.396;2022-12-18T16:36:50;10.10;;;4.10;;
54849;SDS011;47660;51.334;12.396;2022-12-18T16:39:16;12.15;;;6.93;;
54849;SDS011;47660;51.334;12.396;2022-12-18T16:41:42;12.07;;;7.10;;
54849;SDS011;47660;51.334;12.396;2022-12-18T16:44:10;14.95;;;5.78;;
54849;SDS011;47660;51.334;12.396;2022-12-18T16:46:36;10.57;;;5.55;;
54849;SDS011;47660;51.334;12.396;2022-12-18T16:49:02;24.40;;;8.50;;
54849;SDS011;47660;51.334;12.396;2022-12-18T16:51:31;11.15;;;5.88;;
54849;SDS011;47660;51.334;12.396;2022-12-18T16:53:57;8.32;;;5.22;;
54849;SDS011;47660;51.334;12.396;2022-12-18T16:56:22;12.15;;;5.70;;
54849;SDS011;47660;51.334;12.396;2022-12-18T17:01:23;5.32;;;3.70;;
54849;SDS011;47660;51.334;12.396;2022-12-18T17:03:54;14.13;;;5.35;;
54849;SDS011;47660;51.334;12.396;2022-12-18T17:06:24;8.70;;;4.60;;
54849;SDS011;47660;51.334;12.396;2022-12-18T17:08:58;13.48;;;6.03;;
54849;SDS011;47660;51.334;12.396;2022-12-18T17:11:28;8.93;;;6.47;;
54849;SDS011;47660;51.334;12.396;2022-12-18T17:13:55;9.45;;;4.68;;
54849;SDS011;47660;51.334;12.396;2022-12-18T17:16:24;11.63;;;5.35;;
54849;SDS011;47660;51.334;12.396;2022-12-18T17:18:51;7.38;;;5.55;;
54849;SDS011;47660;51.334;12.396;2022-12-18T17:21:17;7.05;;;5.10;;
54849;SDS011;47660;51.334;12.396;2022-12-18T17:23:45;11.95;;;7.20;;